ilmateenistus.ee keskkonnaagentuur.ee
EETN Таллинн
FTEO31 EETN 212300
TAF EETN 212323Z 2200/2224 23018G30KT 9999 BKN015 TEMPO 2200/2205
    26025G45KT 3000 SHRA BKN007 BKN015CB TEMPO 2209/2215 27025G35KT BECMG
    2218/2220 23012KT TEMPO 2221/2224 4000 RA BKN010 OVC018=

METAR EETN 220220Z 25016G31KT 6000 SHRA SCT012 SCT014CB BKN019 06/05 Q0972=
Таллинн
EEKA Кярдла
METAR EEKA 220220Z NIL=
Кярдла
EEKE Курессааре
METAR EEKE 220220Z AUTO 26014G24KT 230V300 9999NDV -RA BKN034 08/04 Q0980=
Курессааре
EEPU Пярну
METAR EEPU 220220Z NIL=
Пярну
EETU Тарту
METAR EETU 220220Z AUTO 22019KT 9999 FEW035/// 08/02 Q0979=
Тарту
EEEI Эмари
SPECI EEEI 220154Z AUTO 24019G29KT 9999 -RA FEW016/// SCT018/// OVC021/// 07/05 Q0973=
Эмари